createdAt,value
2023-02-21T00:00:05.567Z,10.37
2023-02-21T00:02:58.603Z,10.41
2023-02-21T00:05:45.133Z,10.47
2023-02-21T00:08:31.774Z,10.44
2023-02-21T00:11:18.134Z,10.46
2023-02-21T00:14:04.564Z,10.53
2023-02-21T00:16:52.385Z,10.63
2023-02-21T00:19:38.528Z,10.54
2023-02-21T00:22:25.033Z,10.49
2023-02-21T00:25:11.609Z,10.49
2023-02-21T00:27:57.975Z,10.41
2023-02-21T00:30:44.775Z,10.47
2023-02-21T00:33:33.154Z,10.50
2023-02-21T00:36:19.682Z,10.54
2023-02-21T00:39:05.770Z,10.50
2023-02-21T00:41:52.299Z,10.56
2023-02-21T00:44:38.431Z,10.54
2023-02-21T00:47:24.744Z,10.62
2023-02-21T00:50:12.504Z,10.58
2023-02-21T00:52:58.699Z,10.46
2023-02-21T00:55:45.213Z,10.41
2023-02-21T00:58:31.378Z,10.39
2023-02-21T01:01:18.258Z,10.39
2023-02-21T01:04:04.864Z,10.48
2023-02-21T01:06:52.971Z,10.46
2023-02-21T01:09:39.257Z,10.39
2023-02-21T01:12:25.852Z,10.26
2023-02-21T01:15:12.302Z,10.43
2023-02-21T01:17:58.647Z,10.33
2023-02-21T01:20:45.344Z,10.30
2023-02-21T01:23:33.219Z,10.45
2023-02-21T01:26:19.439Z,10.45
2023-02-21T01:29:06.529Z,10.42
2023-02-21T01:31:52.804Z,10.46
2023-02-21T01:34:38.907Z,10.46
2023-02-21T01:37:25.085Z,10.38
2023-02-21T01:40:12.957Z,10.37
2023-02-21T01:43:01.975Z,10.48
2023-02-21T01:46:07.009Z,10.59
2023-02-21T01:48:55.199Z,10.63
2023-02-21T01:51:46.799Z,10.46
2023-02-21T01:54:35.187Z,10.38
2023-02-21T01:57:24.531Z,10.32
2023-02-21T02:00:15.132Z,10.46
2023-02-21T02:03:14.297Z,10.46
2023-02-21T02:06:05.005Z,10.51
2023-02-21T02:08:53.778Z,10.52
2023-02-21T02:12:05.048Z,10.53
2023-02-21T02:15:33.452Z,10.35
2023-02-21T02:18:25.562Z,10.40
2023-02-21T02:21:37.952Z,10.37
2023-02-21T02:24:43.861Z,10.32
2023-02-21T02:27:37.624Z,10.35
2023-02-21T02:30:49.551Z,10.40
2023-02-21T02:33:58.812Z,10.48
2023-02-21T02:36:36.550Z,10.46
2023-02-21T02:39:22.497Z,10.44
2023-02-21T02:42:09.132Z,10.46
2023-02-21T02:44:42.497Z,10.53
2023-02-21T02:47:19.465Z,10.47
2023-02-21T02:49:51.486Z,10.44
2023-02-21T02:52:20.836Z,10.35
2023-02-21T02:55:00.092Z,10.42
2023-02-21T02:57:38.244Z,10.46
2023-02-21T03:00:10.751Z,10.50
2023-02-21T03:02:57.469Z,10.53
2023-02-21T03:05:44.427Z,10.53
2023-02-21T03:08:28.019Z,10.51
2023-02-21T03:11:08.971Z,10.57
2023-02-21T03:13:47.632Z,10.48
2023-02-21T03:16:25.658Z,10.50
2023-02-21T03:19:01.840Z,10.43
2023-02-21T03:21:38.200Z,10.58
2023-02-21T03:24:15.979Z,10.51
2023-02-21T03:26:49.593Z,10.40
2023-02-21T03:29:41.811Z,10.46
2023-02-21T03:32:15.856Z,10.41
2023-02-21T03:34:44.801Z,10.33
2023-02-21T03:37:28.648Z,10.33
2023-02-21T03:39:58.092Z,10.40
2023-02-21T03:42:26.259Z,10.45
2023-02-21T03:44:54.819Z,10.50
2023-02-21T03:47:23.974Z,10.56
2023-02-21T03:49:53.013Z,10.51
2023-02-21T03:52:21.392Z,10.50
2023-02-21T03:54:49.280Z,10.54
2023-02-21T03:57:22.979Z,10.54
2023-02-21T03:59:51.526Z,10.55
2023-02-21T04:02:19.631Z,10.52
2023-02-21T04:04:48.751Z,10.70
2023-02-21T04:07:21.277Z,10.64
2023-02-21T04:09:50.616Z,10.51
2023-02-21T04:12:28.760Z,10.69
2023-02-21T04:14:58.607Z,10.58
2023-02-21T04:17:27.723Z,10.54
2023-02-21T04:19:57.836Z,10.59
2023-02-21T04:22:26.094Z,10.57
2023-02-21T04:24:54.483Z,10.55
2023-02-21T04:27:27.065Z,10.58
2023-02-21T04:29:58.537Z,10.54
2023-02-21T04:32:27.139Z,10.60
2023-02-21T04:34:56.095Z,10.56
2023-02-21T04:37:25.379Z,10.48
2023-02-21T04:39:53.889Z,10.45
2023-02-21T04:42:21.958Z,10.51
2023-02-21T04:44:59.648Z,10.44
2023-02-21T04:47:29.928Z,10.43
2023-02-21T04:49:58.637Z,10.47
2023-02-21T04:52:26.564Z,10.44
2023-02-21T04:54:54.439Z,10.44
2023-02-21T04:57:22.396Z,10.43
2023-02-21T04:59:57.830Z,10.55
2023-02-21T05:02:27.266Z,10.55
2023-02-21T05:04:56.410Z,10.48
2023-02-21T05:07:24.260Z,10.48
2023-02-21T05:09:52.451Z,10.48
2023-02-21T05:12:20.363Z,10.45
2023-02-21T05:14:48.172Z,10.45
2023-02-21T05:17:16.048Z,10.37
2023-02-21T05:19:43.982Z,10.30
2023-02-21T05:22:13.137Z,10.22
2023-02-21T05:24:45.003Z,10.17
2023-02-21T05:27:15.632Z,10.28
2023-02-21T05:29:47.964Z,10.32
2023-02-21T05:32:18.814Z,10.30
2023-02-21T05:34:47.747Z,10.21
2023-02-21T05:37:21.081Z,10.36
2023-02-21T05:39:49.327Z,10.26
2023-02-21T05:42:17.354Z,10.14
2023-02-21T05:44:46.034Z,10.22
2023-02-21T05:47:15.031Z,10.15
2023-02-21T05:49:43.440Z,9.99
2023-02-21T05:52:13.419Z,10.02
2023-02-21T05:54:43.110Z,9.95
2023-02-21T05:57:11.408Z,9.97
2023-02-21T05:59:39.715Z,9.92
2023-02-21T06:02:07.585Z,10.13
2023-02-21T06:04:35.410Z,10.21
2023-02-21T06:07:03.205Z,10.13
2023-02-21T06:09:31.087Z,10.22
2023-02-21T06:12:00.369Z,10.15
2023-02-21T06:14:28.179Z,10.16
2023-02-21T06:16:55.970Z,10.07
2023-02-21T06:19:23.914Z,10.12
2023-02-21T06:21:51.950Z,10.02
2023-02-21T06:24:19.807Z,10.14
2023-02-21T06:26:47.639Z,10.15
2023-02-21T06:29:17.083Z,10.11
2023-02-21T06:31:44.922Z,10.05
2023-02-21T06:34:13.262Z,10.01
2023-02-21T06:36:41.357Z,10.06
2023-02-21T06:39:10.749Z,9.96
2023-02-21T06:41:38.555Z,9.98
2023-02-21T06:44:06.339Z,9.99
2023-02-21T06:46:37.664Z,10.01
2023-02-21T06:49:05.552Z,10.04
2023-02-21T06:51:35.510Z,10.13
2023-02-21T06:54:04.459Z,9.90
2023-02-21T06:56:32.325Z,10.03
2023-02-21T06:59:00.283Z,10.03
2023-02-21T07:01:30.666Z,9.97
2023-02-21T07:04:00.459Z,10.04
2023-02-21T07:06:29.813Z,9.97
2023-02-21T07:08:57.913Z,9.99
2023-02-21T07:11:28.569Z,10.02
2023-02-21T07:13:59.463Z,9.98
2023-02-21T07:16:28.232Z,10.08
2023-02-21T07:18:55.988Z,10.22
2023-02-21T07:21:26.990Z,10.15
2023-02-21T07:23:54.933Z,10.02
2023-02-21T07:26:22.762Z,9.96
2023-02-21T07:28:50.729Z,10.02
2023-02-21T07:31:20.713Z,10.01
2023-02-21T07:33:50.034Z,9.96
2023-02-21T07:36:18.286Z,9.85
2023-02-21T07:38:47.431Z,9.81
2023-02-21T07:41:17.107Z,9.71
2023-02-21T07:43:45.108Z,9.73
2023-02-21T07:46:15.393Z,9.77
2023-02-21T07:48:43.304Z,9.67
2023-02-21T07:51:11.119Z,9.68
2023-02-21T07:53:38.954Z,9.53
2023-02-21T07:56:08.195Z,9.52
2023-02-21T07:58:37.291Z,9.63
2023-02-21T08:01:06.522Z,9.71
2023-02-21T08:03:34.506Z,9.72
2023-02-21T08:06:02.440Z,9.72
2023-02-21T08:08:30.327Z,9.87
2023-02-21T08:10:58.260Z,9.77
2023-02-21T08:13:27.351Z,9.73
2023-02-21T08:15:55.136Z,9.63
2023-02-21T08:18:24.778Z,9.80
2023-02-21T08:20:53.953Z,9.82
2023-02-21T08:23:22.121Z,9.80
2023-02-21T08:25:50.249Z,9.64
2023-02-21T08:28:18.207Z,9.67
2023-02-21T08:30:47.596Z,9.67
2023-02-21T08:33:15.354Z,9.50
2023-02-21T08:35:43.685Z,9.75
2023-02-21T08:38:11.627Z,9.70
2023-02-21T08:40:39.426Z,9.74
2023-02-21T08:43:07.260Z,9.77
2023-02-21T08:45:35.110Z,9.77
2023-02-21T08:48:04.643Z,9.70
2023-02-21T08:50:33.355Z,9.82
2023-02-21T08:53:01.211Z,9.78
2023-02-21T08:55:29.074Z,9.84
2023-02-21T08:57:56.928Z,9.96
2023-02-21T09:00:28.495Z,10.08
2023-02-21T09:02:58.081Z,10.01
2023-02-21T09:05:31.273Z,10.18
2023-02-21T09:08:01.973Z,10.14
2023-02-21T09:10:35.719Z,10.06
2023-02-21T09:13:05.806Z,9.96
2023-02-21T09:15:34.139Z,10.04
2023-02-21T09:18:02.056Z,10.09
2023-02-21T09:20:31.195Z,10.07
2023-02-21T09:22:59.025Z,10.03
2023-02-21T09:25:26.928Z,10.22
2023-02-21T09:27:55.108Z,10.20
2023-02-21T09:30:26.832Z,10.19
2023-02-21T09:32:56.155Z,10.20
2023-02-21T09:35:23.996Z,10.12
2023-02-21T09:37:53.316Z,10.07
2023-02-21T09:40:35.855Z,10.21
2023-02-21T09:43:09.483Z,10.14
2023-02-21T09:45:38.753Z,10.13
2023-02-21T09:48:12.398Z,10.24
2023-02-21T09:50:46.528Z,10.23
2023-02-21T09:53:26.623Z,10.29
2023-02-21T09:56:00.144Z,10.21
2023-02-21T09:58:28.307Z,10.42
2023-02-21T10:01:02.106Z,10.52
2023-02-21T10:03:47.192Z,10.54
2023-02-21T10:06:33.308Z,10.46
2023-02-21T10:09:08.374Z,10.50
2023-02-21T10:11:54.328Z,10.50
2023-02-21T10:14:34.286Z,10.50
2023-02-21T10:17:15.787Z,10.56
2023-02-21T10:19:49.498Z,10.38
2023-02-21T10:22:22.138Z,10.45
2023-02-21T10:24:53.069Z,10.46
2023-02-21T10:27:25.114Z,10.53
2023-02-21T10:30:04.750Z,10.61
2023-02-21T10:32:33.424Z,10.64
2023-02-21T10:35:01.259Z,10.52
2023-02-21T10:37:40.658Z,10.69
2023-02-21T10:40:34.366Z,10.66
2023-02-21T10:43:11.134Z,10.85
2023-02-21T10:45:46.815Z,10.92
2023-02-21T10:48:18.192Z,10.84
2023-02-21T10:50:52.081Z,10.84
2023-02-21T10:53:29.379Z,10.91
2023-02-21T10:56:24.307Z,11.03
2023-02-21T10:58:56.451Z,11.15
2023-02-21T11:01:36.958Z,10.94
2023-02-21T11:04:07.603Z,10.99
2023-02-21T11:06:38.695Z,10.70
2023-02-21T11:09:31.408Z,10.73
2023-02-21T11:12:17.999Z,10.93
2023-02-21T11:15:07.299Z,10.91
2023-02-21T11:17:35.167Z,10.95
2023-02-21T11:20:17.931Z,11.12
2023-02-21T11:22:49.360Z,11.19
2023-02-21T11:25:24.449Z,11.11
2023-02-21T11:28:05.420Z,11.15
2023-02-21T11:30:37.386Z,11.24
2023-02-21T11:33:07.765Z,11.20
2023-02-21T11:35:44.113Z,11.06
2023-02-21T11:38:32.775Z,11.10
2023-02-21T11:41:00.817Z,11.09
2023-02-21T11:43:30.994Z,11.14
2023-02-21T11:46:19.048Z,11.08
2023-02-21T11:49:01.948Z,11.05
2023-02-21T11:51:46.357Z,10.84
2023-02-21T11:54:15.223Z,10.90
2023-02-21T11:56:52.092Z,10.87
2023-02-21T11:59:35.805Z,10.87
2023-02-21T12:02:54.245Z,10.68
2023-02-21T12:05:45.440Z,10.64
2023-02-21T12:08:38.170Z,10.59
2023-02-21T12:11:29.553Z,10.72
2023-02-21T12:14:16.220Z,10.78
2023-02-21T12:17:04.938Z,10.64
2023-02-21T12:19:53.967Z,10.87
2023-02-21T12:22:45.984Z,10.74
2023-02-21T12:25:29.525Z,10.77
2023-02-21T12:28:12.953Z,10.78
2023-02-21T12:31:12.221Z,10.69
2023-02-21T12:33:57.286Z,10.86
2023-02-21T12:36:46.159Z,10.91
2023-02-21T12:39:32.916Z,11.13
2023-02-21T12:42:28.369Z,11.11
2023-02-21T12:45:16.596Z,10.88
2023-02-21T12:47:54.021Z,10.80
2023-02-21T12:50:33.045Z,11.06
2023-02-21T12:53:10.164Z,11.01
2023-02-21T12:55:46.057Z,11.07
2023-02-21T12:58:25.037Z,11.12
2023-02-21T13:00:58.974Z,11.22
2023-02-21T13:03:42.384Z,11.21
2023-02-21T13:06:20.914Z,11.36
2023-02-21T13:09:07.787Z,11.18
2023-02-21T13:11:43.402Z,11.28
2023-02-21T13:14:18.417Z,11.39
2023-02-21T13:16:46.393Z,11.20
2023-02-21T13:19:15.908Z,11.17
2023-02-21T13:22:07.515Z,11.11
2023-02-21T13:25:07.006Z,10.97
2023-02-21T13:28:00.194Z,11.11
2023-02-21T13:30:40.139Z,11.24
2023-02-21T13:33:26.301Z,11.20
2023-02-21T13:35:57.754Z,11.23
2023-02-21T13:38:32.340Z,11.44
2023-02-21T13:41:16.765Z,11.62
2023-02-21T13:43:51.352Z,11.50
2023-02-21T13:47:06.930Z,11.41
2023-02-21T13:49:48.089Z,11.20
2023-02-21T13:53:01.804Z,11.41
2023-02-21T13:55:32.158Z,11.42
2023-02-21T13:58:37.380Z,11.36
2023-02-21T14:01:38.634Z,11.54
2023-02-21T14:04:59.420Z,11.56
2023-02-21T14:07:56.195Z,11.53
2023-02-21T14:10:37.489Z,11.66
2023-02-21T14:13:21.227Z,11.62
2023-02-21T14:15:58.459Z,11.57
2023-02-21T14:18:31.355Z,11.59
2023-02-21T14:21:02.054Z,11.59
2023-02-21T14:23:45.576Z,11.60
2023-02-21T14:26:42.394Z,11.57
2023-02-21T14:29:31.489Z,11.63
2023-02-21T14:32:28.581Z,11.31
2023-02-21T14:34:59.839Z,11.34
2023-02-21T14:37:35.528Z,11.47
2023-02-21T14:40:19.889Z,11.61
2023-02-21T14:43:08.977Z,11.47
2023-02-21T14:45:57.828Z,11.51
2023-02-21T14:48:55.702Z,11.61
2023-02-21T14:52:18.737Z,11.52
2023-02-21T14:55:32.661Z,11.65
2023-02-21T14:58:48.885Z,11.53
2023-02-21T15:01:40.957Z,11.39
2023-02-21T15:04:20.887Z,11.58
2023-02-21T15:07:08.043Z,11.73
2023-02-21T15:09:35.911Z,11.75
2023-02-21T15:12:10.322Z,11.61
2023-02-21T15:14:49.863Z,11.50
2023-02-21T15:17:23.117Z,11.50
2023-02-21T15:20:05.815Z,11.68
2023-02-21T15:22:33.914Z,11.72
2023-02-21T15:25:20.268Z,11.66
2023-02-21T15:27:59.145Z,11.46
2023-02-21T15:30:35.332Z,11.49
2023-02-21T15:33:14.744Z,11.64
2023-02-21T15:35:50.321Z,11.50
2023-02-21T15:38:26.249Z,11.74
2023-02-21T15:41:00.293Z,11.79
2023-02-21T15:43:38.923Z,11.71
2023-02-21T15:46:16.369Z,11.43
2023-02-21T15:48:44.663Z,11.39
2023-02-21T15:51:13.484Z,11.42
2023-02-21T15:53:41.534Z,11.49
2023-02-21T15:56:24.069Z,11.58
2023-02-21T15:59:17.629Z,11.69
2023-02-21T16:02:15.970Z,11.76
2023-02-21T16:04:46.559Z,11.75
2023-02-21T16:07:21.556Z,11.70
2023-02-21T16:09:59.560Z,11.89
2023-02-21T16:12:37.613Z,11.95
2023-02-21T16:15:19.455Z,11.96
2023-02-21T16:17:55.114Z,11.84
2023-02-21T16:20:27.038Z,11.98
2023-02-21T16:23:23.397Z,11.92
2023-02-21T16:25:57.812Z,12.06
2023-02-21T16:28:25.936Z,12.07
2023-02-21T16:30:55.654Z,12.10
2023-02-21T16:33:25.788Z,12.15
2023-02-21T16:35:54.153Z,12.17
2023-02-21T16:38:24.765Z,12.14
2023-02-21T16:40:53.487Z,12.24
2023-02-21T16:43:25.131Z,12.32
2023-02-21T16:45:56.452Z,12.35
2023-02-21T16:48:32.766Z,12.40
2023-02-21T16:51:04.747Z,12.30
2023-02-21T16:53:32.826Z,12.36
2023-02-21T16:56:03.629Z,12.39
2023-02-21T16:58:36.685Z,12.40
2023-02-21T17:01:12.908Z,12.35
2023-02-21T17:03:42.477Z,12.32
2023-02-21T17:06:18.792Z,12.37
2023-02-21T17:08:47.015Z,12.36
2023-02-21T17:11:15.176Z,12.33
2023-02-21T17:13:43.256Z,12.32
2023-02-21T17:16:11.419Z,12.33
2023-02-21T17:18:39.312Z,12.33
2023-02-21T17:21:08.474Z,12.27
2023-02-21T17:23:37.275Z,12.21
2023-02-21T17:26:05.214Z,12.28
2023-02-21T17:28:34.441Z,12.30
2023-02-21T17:31:02.356Z,12.33
2023-02-21T17:33:30.320Z,12.40
2023-02-21T17:35:58.370Z,12.36
2023-02-21T17:38:27.490Z,12.30
2023-02-21T17:40:59.263Z,12.30
2023-02-21T17:43:27.123Z,12.29
2023-02-21T17:45:54.906Z,12.33
2023-02-21T17:48:23.056Z,12.35
2023-02-21T17:50:50.977Z,12.36
2023-02-21T17:53:18.742Z,12.34
2023-02-21T17:55:48.608Z,12.25
2023-02-21T17:58:16.403Z,12.29
2023-02-21T18:00:45.290Z,12.19
2023-02-21T18:03:13.294Z,12.11
2023-02-21T18:05:41.102Z,12.16
2023-02-21T18:08:08.910Z,12.16
2023-02-21T18:10:36.890Z,12.19
2023-02-21T18:13:06.072Z,12.15
2023-02-21T18:15:33.914Z,12.14
2023-02-21T18:18:06.883Z,12.13
2023-02-21T18:20:35.927Z,12.19
2023-02-21T18:23:06.510Z,12.09
2023-02-21T18:25:35.665Z,12.09
2023-02-21T18:28:05.980Z,12.01
2023-02-21T18:30:34.024Z,12.00
2023-02-21T18:33:02.193Z,12.04
2023-02-21T18:35:30.069Z,11.91
2023-02-21T18:37:58.023Z,11.80
2023-02-21T18:40:34.404Z,11.83
2023-02-21T18:43:02.560Z,11.93
2023-02-21T18:45:34.033Z,11.97
2023-02-21T18:48:03.190Z,12.04
2023-02-21T18:50:30.931Z,12.10
2023-02-21T18:52:59.564Z,12.11
2023-02-21T18:55:27.355Z,12.14
2023-02-21T18:57:55.407Z,12.15
2023-02-21T19:00:24.727Z,12.23
2023-02-21T19:02:54.139Z,12.22
2023-02-21T19:05:25.101Z,12.28
2023-02-21T19:07:53.913Z,12.23
2023-02-21T19:10:28.410Z,12.17
2023-02-21T19:12:59.209Z,12.24
2023-02-21T19:15:27.221Z,12.21
2023-02-21T19:17:57.552Z,12.23
2023-02-21T19:20:25.794Z,12.25
2023-02-21T19:22:55.970Z,12.23
2023-02-21T19:25:27.883Z,12.15
2023-02-21T19:28:00.718Z,12.18
2023-02-21T19:30:33.650Z,12.18
2023-02-21T19:33:05.010Z,12.25
2023-02-21T19:35:34.918Z,12.23
2023-02-21T19:38:06.140Z,12.21
2023-02-21T19:40:35.396Z,12.22
2023-02-21T19:43:04.050Z,12.19
2023-02-21T19:45:32.460Z,12.15
2023-02-21T19:48:00.636Z,12.06
2023-02-21T19:50:34.800Z,11.96
2023-02-21T19:53:02.855Z,11.93
2023-02-21T19:55:31.245Z,11.85
2023-02-21T19:57:59.547Z,11.81
2023-02-21T20:00:27.754Z,11.74
2023-02-21T20:02:55.692Z,11.62
2023-02-21T20:05:23.919Z,11.62
2023-02-21T20:07:53.513Z,11.50
2023-02-21T20:10:25.436Z,11.52
2023-02-21T20:12:55.747Z,11.53
2023-02-21T20:15:24.685Z,11.56
2023-02-21T20:17:54.304Z,11.61
2023-02-21T20:20:22.567Z,11.64
2023-02-21T20:22:51.163Z,11.58
2023-02-21T20:25:21.182Z,11.59
2023-02-21T20:27:49.242Z,11.56
2023-02-21T20:30:17.596Z,11.63
2023-02-21T20:32:45.872Z,11.68
2023-02-21T20:35:13.905Z,11.68
2023-02-21T20:37:41.964Z,11.68
2023-02-21T20:40:11.329Z,11.68
2023-02-21T20:42:41.254Z,11.72
2023-02-21T20:45:13.384Z,11.79
2023-02-21T20:47:41.519Z,11.79
2023-02-21T20:50:10.014Z,11.79
2023-02-21T20:52:40.356Z,11.80
2023-02-21T20:55:09.733Z,11.79
2023-02-21T20:57:37.722Z,11.77
2023-02-21T21:00:12.643Z,11.76
2023-02-21T21:02:41.929Z,11.72
2023-02-21T21:05:13.958Z,11.76
2023-02-21T21:07:46.111Z,11.72
2023-02-21T21:10:16.697Z,11.77
2023-02-21T21:12:45.472Z,11.71
2023-02-21T21:15:15.804Z,11.55
2023-02-21T21:17:43.859Z,11.55
2023-02-21T21:20:17.618Z,11.54
2023-02-21T21:22:46.468Z,11.59
2023-02-21T21:25:16.924Z,11.50
2023-02-21T21:27:45.820Z,11.51
2023-02-21T21:30:22.571Z,11.36
2023-02-21T21:32:50.765Z,11.47
2023-02-21T21:35:20.217Z,11.59
2023-02-21T21:37:49.565Z,11.46
2023-02-21T21:40:17.836Z,11.47
2023-02-21T21:42:49.709Z,11.48
2023-02-21T21:45:25.109Z,11.49
2023-02-21T21:47:59.154Z,11.43
2023-02-21T21:50:27.397Z,11.41
2023-02-21T21:52:58.301Z,11.36
2023-02-21T21:55:29.150Z,11.39
2023-02-21T21:57:58.895Z,11.30
2023-02-21T22:00:30.411Z,11.16
2023-02-21T22:03:01.915Z,11.23
2023-02-21T22:05:32.014Z,11.28
2023-02-21T22:08:00.222Z,11.26
2023-02-21T22:10:29.350Z,11.29
2023-02-21T22:13:00.502Z,11.27
2023-02-21T22:15:30.238Z,11.19
2023-02-21T22:18:03.741Z,11.14
2023-02-21T22:20:31.687Z,11.13
2023-02-21T22:23:00.364Z,11.05
2023-02-21T22:25:30.560Z,11.04
2023-02-21T22:28:02.536Z,11.15
2023-02-21T22:30:31.935Z,11.08
2023-02-21T22:32:59.931Z,11.06
2023-02-21T22:35:28.529Z,11.10
2023-02-21T22:38:02.032Z,11.01
2023-02-21T22:40:35.465Z,10.97
2023-02-21T22:43:08.950Z,10.90
2023-02-21T22:45:38.695Z,10.87
2023-02-21T22:48:10.002Z,10.97
2023-02-21T22:50:39.381Z,10.90
2023-02-21T22:53:13.010Z,10.82
2023-02-21T22:55:41.031Z,10.81
2023-02-21T22:58:10.107Z,10.78
2023-02-21T23:00:39.430Z,10.81
2023-02-21T23:03:15.690Z,10.81
2023-02-21T23:05:46.804Z,10.72
2023-02-21T23:08:18.405Z,10.76
2023-02-21T23:10:47.768Z,10.68
2023-02-21T23:13:20.800Z,10.72
2023-02-21T23:15:51.709Z,10.78
2023-02-21T23:18:21.003Z,10.72
2023-02-21T23:20:53.080Z,10.77
2023-02-21T23:23:25.806Z,10.89
2023-02-21T23:25:59.253Z,10.89
2023-02-21T23:28:30.450Z,11.04
2023-02-21T23:30:59.736Z,11.20
2023-02-21T23:33:30.240Z,11.28
2023-02-21T23:35:58.627Z,11.31
2023-02-21T23:38:28.533Z,11.33
2023-02-21T23:40:58.810Z,11.38
2023-02-21T23:43:29.793Z,11.36
2023-02-21T23:46:00.253Z,11.25
2023-02-21T23:48:29.703Z,11.19
2023-02-21T23:50:58.175Z,11.17
2023-02-21T23:53:29.393Z,11.19
2023-02-21T23:56:00.337Z,11.09
2023-02-21T23:58:33.913Z,11.12
